Tiempo atmosférico en la estación meteorológica de Miranda De Ebro, Burgos (512 m.)



Fecha
DESCASC
Temp. máxima en grados centígrados (hora)
DESCASC
Temp. mínima en grados centígrados (hora)
DESCASC
Temp. media en grados centígrados
DESCASC
Racha de viento máxima en m/sg (hora)
DESCASC
Velocidad máxima media en intervalos de 10 minutos(hora)
DESCASC
Precipitaciones diarias en mm
DESCASC
Precipitaciones de 00:00 a 06:00 en mm
DESCASC
Precipitaciones de 06:00 a 12:00 en mm
DESCASC
Precipitaciones de 12:00 a 18:00 en mm
DESCASC
Precipitaciones de 18:00 a 24:00 en mm
DESCASC
22-01-2020 9.8 (17:00) 3.8 (06:20) 6.8 4.17 (02:40) 2.22 (02:50) 0.2 0.2 0 0 0
21-01-2020 4.2 (22:50) 0.6 (02:40) 2.4 7.5 (09:30) 3.33 (18:00) 5.2 0 0.2 5 0
20-01-2020 4.3 (14:30) 1.8 (08:50) 3.1 11.67 (01:20) 5 (11:10) 0 0 0 0 0
19-01-2020 7.7 (13:20) 3.6 (00:00) 5.6 12.78 (21:50) 6.67 (22:40) 0.8 0.4 0.2 0.2 0
18-01-2020 8.9 (13:20) 0.7 (00:00) 4.8 7.78 (18:40) 4.44 (18:40) 18.4 0 0 4.6 13.8
17-01-2020 12.1 (13:00) 1.4 (00:00) 6.8 12.22 (01:00) 5.56 (06:20) 1.4 0 1.4 0 0
16-01-2020 15.1 (15:20) 1.7 (00:00) 8.4 10.56 (22:30) 5 (23:00) 0 0 0 0 0
15-01-2020 11.5 (17:00) 1.8 (00:00) 6.6 6.94 (00:20) 3.89 (00:10) 0 0 0 0 0
14-01-2020 12.5 (13:10) 2.2 (00:00) 7.4 14.72 (15:50) 7.78 (14:00) 0 0 0 0 0
13-01-2020 12.4 (15:20) -2.5 (-00:0) 4.9 10.56 (17:10) 6.11 (17:00) 0 0 0 0 0
12-01-2020 10.2 (17:20) -3.4 (-00:0) 3.4 2.22 (08:20) 1.39 (08:30) 0 0 0 0 0
11-01-2020 13 (17:10) -1.8 (-00:0) 5.6 3.33 (01:20) 2.5 (01:20) 0 0 0 0 0
10-01-2020 11 (12:10) 1.1 (00:00) 6.1 6.39 (15:40) 3.61 (14:30) 0.4 0 0 0.4 0
09-01-2020 8.9 (11:50) 1.3 (00:00) 5.1 8.06 (14:20) 4.72 (14:30) 2.6 0 0 0.4 2.2
08-01-2020 17.7 (17:10) -1.1 (-00:0) 8.3 4.72 (18:10) 3.06 (18:10) 0 0 0 0 0
07-01-2020 12.6 (15:40) -2.5 (-00:0) 5.1 2.5 (07:20) 1.39 (07:20) 0 0 0 0 0
06-01-2020 13.2 (15:20) -4.1 (-00:0) 4.5 2.78 (15:40) 1.39 (15:30) 0 0 0 0 0
05-01-2020 15.4 (17:00) -1.4 (-00:0) 7 2.5 (06:00) 1.67 (06:00) 0 0 0 0 0
04-01-2020 9.8 (15:50) 1.8 (00:00) 5.8 4.17 (16:20) 2.78 (16:40) 0 0 0 0 0
03-01-2020 5.6 (16:30) -1.9 (-00:0) 1.8 5.56 (01:20) 2.22 (01:20) 0 0 0 0 0
02-01-2020 7.8 (13:50) -1.2 (-00:0) 3.3 5.83 (14:30) 3.61 (14:30) 0 0 0 0 0
01-01-2020 1.1 (15:30) -2.5 (-00:0) -0.7 2.78 (09:20) 1.94 (09:20) 0 0 0 0 0
31-12-2019 1.2 (16:20) -1.5 (-00:0) -0.1 2.78 (05:40) 1.67 (11:20) 0 0 0 0 0
30-12-2019 -- (--) -- (--) -- -- (--) -- (--) -- 0 0 0 --
29-12-2019 8 (17:10) -2.2 (-00:0) 2.9 2.22 (11:30) 1.11 (10:40) 0 0 0 0 0
28-12-2019 14.1 (17:10) -2.5 (-00:0) 5.8 2.78 (00:20) 1.67 (01:00) 0 0 0 0 0
27-12-2019 4 (15:40) -0.1 (00:00) 1.9 3.33 (21:30) 1.94 (22:10) 0 0 0 0 0
26-12-2019 16.3 (14:30) 1.2 (00:00) 8.7 10.83 (02:20) 6.11 (02:20) 0 0 0 0 0
25-12-2019 14.7 (20:20) 3.1 (00:00) 8.9 6.11 (19:10) 4.72 (19:20) 0 0 0 0 0
24-12-2019 15.7 (14:40) 4.7 (00:00) 10.2 9.17 (03:30) 5 (11:50) 0 0 0 0 0

Gráficas

Temp. máximas Temp. mínimas Temp. medias Precipitaciones Rachas de viento máximas Velocidades máximas media en intervalos de 10 minutos

Datos horarios

Fecha y hora oficial Temperatura (ºC) Velocidad del viento (km/h) Dirección del viento Racha (km/h) Dirección de racha Precipitación (mm) Presión (hPa) Tendencia (hPa) Humedad (%)
2020-01-22 23:00:00 5.6 3 Oeste 6 Sudeste 0 -- -- 94
2020-01-22 22:00:00 4.9 0 Calma 8 Oeste 0 -- -- 92
2020-01-22 21:00:00 6.3 0 Calma 12 Nordeste 0 -- -- 87
2020-01-22 20:00:00 7.2 5 Nordeste 13 Nordeste 0 -- -- 84
2020-01-22 19:00:00 7.4 0 Calma 5 Sudoeste 0 -- -- 88
2020-01-22 18:00:00 8.2 4 Sudoeste 9 Sudoeste 0 -- -- 83
2020-01-22 17:00:00 9.8 3 Sudeste 12 Sudeste 0 -- -- 77
2020-01-22 16:00:00 9.2 6 Sudeste 10 Sudeste 0 -- -- 78
2020-01-22 15:00:00 8.6 3 Oeste 7 Oeste 0 -- -- 78
2020-01-22 14:00:00 8.5 5 Noroeste 9 Noroeste 0 -- -- 81
2020-01-22 13:00:00 7.6 3 Noroeste 5 Oeste 0 -- -- 81
2020-01-22 12:00:00 6.5 0 Calma 6 Sudeste 0 -- -- 85
2020-01-22 11:00:00 5.4 2 Sudeste 4 Sudeste 0 -- -- 93
2020-01-22 10:00:00 4.4 0 Calma 4 Noroeste 0 -- -- 96
2020-01-22 09:00:00 4.1 2 Sudoeste 7 Sudeste 0 -- -- 96
2020-01-22 08:00:00 4 4 Sudeste 8 Sudeste 0 -- -- 96
2020-01-22 07:00:00 3.9 0 Calma 4 Sur 0 -- -- 96
2020-01-22 06:00:00 3.9 0 Calma 6 Oeste 0 -- -- 95
2020-01-22 05:00:00 4.1 2 Sudeste 5 Sur 0.2 -- -- 94
2020-01-22 04:00:00 4.4 2 Sudeste 10 Nordeste 0 -- -- 91
2020-01-22 03:00:00 5.1 7 Nordeste 15 Norte 0 -- -- 88
2020-01-22 02:00:00 4.2 3 Noroeste 8 Norte 0 -- -- 92
2020-01-22 01:00:00 4.4 3 Norte 8 Noroeste 0 -- -- 90
2020-01-22 00:00:00 4.1 3 Norte 9 Norte 0 -- -- 91
2020-01-21 23:00:00 4.1 4 Norte 13 Norte 0 -- -- 89
2020-01-21 22:00:00 3.8 7 Noroeste 17 Noroeste 0 -- -- 89
2020-01-21 21:00:00 3.2 5 Noroeste 13 Norte 0 -- -- 90
2020-01-21 20:00:00 2.9 4 Noroeste 8 Oeste 0 -- -- 91
2020-01-21 19:00:00 2.9 6 Nordeste 21 Nordeste 0 -- -- 88
2020-01-21 18:00:00 2.9 12 Nordeste 19 Este 0.4 -- -- 89
2020-01-21 17:00:00 2.4 4 Norte 19 Nordeste 1.4 -- -- 92
2020-01-21 16:00:00 3 11 Nordeste 22 Nordeste 0.8 -- -- 88
2020-01-21 15:00:00 3.1 9 Nordeste 18 Nordeste 0.2 -- -- 89
2020-01-21 14:00:00 2.4 4 Nordeste 12 Nordeste 0.6 -- -- 94
2020-01-21 13:00:00 2.4 7 Nordeste 19 Nordeste 1.6 -- -- 90
2020-01-21 12:00:00 4.1 10 Nordeste 24 Este 0 -- -- 81
2020-01-21 11:00:00 3.6 0 Calma 20 Nordeste 0.2 -- -- 87
2020-01-21 10:00:00 3.8 7 Norte 27 Nordeste 0 -- -- 80
2020-01-21 09:00:00 3.8 8 Norte 16 Norte 0 -- -- 75
2020-01-21 08:00:00 3.5 8 Norte 22 Nordeste 0 -- -- 76
2020-01-21 07:00:00 2.8 5 Norte 13 Norte 0 -- -- 77
2020-01-21 06:00:00 2.8 8 Norte 13 Norte 0 -- -- 76
2020-01-21 05:00:00 2.3 4 Norte 10 Nordeste 0 -- -- 78
2020-01-21 04:00:00 1.7 3 Norte 8 Nordeste 0 -- -- 80
2020-01-21 03:00:00 1.1 3 Norte 6 Nordeste 0 -- -- 81
2020-01-21 02:00:00 1.1 3 Norte 10 Nordeste 0 -- -- 79
2020-01-21 01:00:00 1.9 5 Nordeste 13 Nordeste 0 -- -- 75
2020-01-21 00:00:00 2.5 5 Nordeste 13 Este 0 -- -- 75
2020-01-20 23:00:00 3.1 6 Norte 16 Norte 0 -- -- 74
2020-01-20 22:00:00 2.7 6 Noroeste 18 Norte 0 -- -- 76
2020-01-20 21:00:00 2.5 6 Norte 16 Norte 0 -- -- 75
2020-01-20 20:00:00 2.3 9 Norte 19 Nordeste 0 -- -- 72
2020-01-20 19:00:00 2 9 Norte 25 Norte 0 -- -- 70
2020-01-20 18:00:00 2.3 8 Norte 24 Nordeste 0 -- -- 65
2020-01-20 17:00:00 2.8 10 Norte 24 Norte 0 -- -- 64
2020-01-20 16:00:00 3.3 12 Norte 26 Norte 0 -- -- 63
2020-01-20 15:00:00 3.9 12 Norte 28 Norte 0 -- -- 65
2020-01-20 14:00:00 3.5 9 Norte 25 Nordeste 0 -- -- 69
2020-01-20 13:00:00 2.6 13 Nordeste 22 Nordeste 0 -- -- 65
2020-01-20 12:00:00 2.4 12 Nordeste 31 Nordeste 0 -- -- 64
2020-01-20 11:00:00 2.2 17 Nordeste 35 Nordeste 0 -- -- 62
2020-01-20 10:00:00 2.1 18 Nordeste 33 Nordeste 0 -- -- 61
2020-01-20 09:00:00 1.9 13 Nordeste 32 Nordeste 0 -- -- 66
2020-01-20 08:00:00 2.2 7 Este 21 Nordeste 0 -- -- 70
2020-01-20 07:00:00 2.3 8 Nordeste 21 Norte 0 -- -- 69
2020-01-20 06:00:00 2.2 8 Norte 34 Nordeste 0 -- -- 69
2020-01-20 05:00:00 2.4 6 Norte 25 Noroeste 0 -- -- 68
2020-01-20 04:00:00 2.5 10 Norte 26 Nordeste 0 -- -- 66
2020-01-20 03:00:00 2.5 6 Nordeste 31 Norte 0 -- -- 67
2020-01-20 02:00:00 2.8 16 Norte 42 Nordeste 0 -- -- 66
2020-01-20 01:00:00 3.1 17 Norte 34 Nordeste 0 -- -- 64
2020-01-20 00:00:00 3.6 14 Nordeste 39 Nordeste 0 -- -- 63
2020-01-19 23:00:00 3.8 18 Nordeste 42 Nordeste 0 -- -- 62
2020-01-19 22:00:00 4.3 20 Nordeste 46 Nordeste 0 -- -- 63
2020-01-19 21:00:00 4.5 15 Nordeste 36 Nordeste 0 -- -- 65
2020-01-19 20:00:00 4.5 10 Norte 27 Norte 0 -- -- 66
2020-01-19 19:00:00 4.2 8 Norte 27 Nordeste 0 -- -- 68
2020-01-19 18:00:00 4.4 15 Norte 34 Norte 0.2 -- -- 67
2020-01-19 17:00:00 5.4 13 Norte 36 Norte 0 -- -- 65
2020-01-19 16:00:00 6.1 15 Norte 37 Norte 0 -- -- 61
2020-01-19 15:00:00 6.7 17 Norte 38 Nordeste 0 -- -- 65
2020-01-19 14:00:00 7.1 16 Norte 37 Norte 0 -- -- 63
2020-01-19 13:00:00 7.1 13 Norte 31 Nordeste 0 -- -- 65
2020-01-19 12:00:00 6.3 12 Norte 27 Norte 0 -- -- 67
2020-01-19 11:00:00 5.1 8 Norte 26 Norte 0 -- -- 75
2020-01-19 10:00:00 5.3 12 Norte 23 Noroeste 0 -- -- 78
2020-01-19 09:00:00 4.8 10 Norte 36 Noroeste 0 -- -- 82
2020-01-19 08:00:00 5.5 12 Norte 34 Norte 0 -- -- 79
2020-01-19 07:00:00 5.5 11 Norte 44 Norte 0.2 -- -- 86
2020-01-19 06:00:00 6 15 Norte 30 Norte 0 -- -- 87
2020-01-19 05:00:00 5.7 11 Noroeste 18 Noroeste 0 -- -- 96
2020-01-19 04:00:00 4.1 4 Oeste 8 Oeste 0.2 -- -- 97
2020-01-19 03:00:00 3.9 4 Oeste 7 Oeste 0 -- -- 97
2020-01-19 02:00:00 3.7 5 Sudoeste 7 Sudoeste 0.2 -- -- 96
2020-01-19 01:00:00 3.9 4 Oeste 6 Sudoeste 0 -- -- 96
2020-01-19 00:00:00 4.1 2 Nordeste 6 Nordeste 0 -- -- 95
2020-01-18 23:00:00 4.2 2 Sur 15 Sur 0 -- -- 94
2020-01-18 22:00:00 4.1 6 Sur 11 Sur 0.4 -- -- 96
2020-01-18 21:00:00 4.5 4 Sur 19 Norte 2.4 -- -- 95
2020-01-18 20:00:00 5.5 12 Norte 24 Norte 5.6 -- -- 90
2020-01-18 19:00:00 6.2 10 Norte 28 Oeste 5.4 -- -- 96
2020-01-18 18:00:00 5.8 7 Noroeste 15 Sudeste 2.8 -- -- 96
2020-01-18 17:00:00 6.1 4 Oeste 8 Noroeste 1.8 -- -- 93
2020-01-18 16:00:00 7.3 6 Noroeste 11 Norte 0 -- -- 82
2020-01-18 15:00:00 7.7 3 Oeste 20 Este 0 -- -- 74
2020-01-18 14:00:00 7.6 12 Sudeste 23 Sudeste 0 -- -- 74
2020-01-18 13:00:00 8.5 7 Sudeste 15 Sudeste 0 -- -- 70
2020-01-18 12:00:00 7.6 5 Este 14 Sudoeste 0 -- -- 74
2020-01-18 11:00:00 6.2 0 Calma 7 Norte 0 -- -- 81
2020-01-18 10:00:00 5.5 0 Calma 5 Sudeste 0 -- -- 86
2020-01-18 09:00:00 2.4 4 Oeste 10 Sur 0 -- -- 95
2020-01-18 08:00:00 2.2 0 Calma 5 Noroeste 0 -- -- 95
2020-01-18 07:00:00 2.3 3 Nordeste 6 Noroeste 0 -- -- 95
2020-01-18 06:00:00 2.4 3 Noroeste 9 Este 0 -- -- 96
2020-01-18 05:00:00 2 4 Norte 6 Noroeste 0 -- -- 96
2020-01-18 04:00:00 1.7 0 Calma 3 Sudoeste 0 -- -- 96
2020-01-18 03:00:00 1.6 3 Noroeste 6 Sudeste 0 -- -- 96
2020-01-18 02:00:00 1.1 3 Este 6 Sudeste 0 -- -- 96
2020-01-18 01:00:00 1.2 2 Noroeste 5 Noroeste 0 -- -- 95
2020-01-18 00:00:00 1.4 2 Sudeste 5 Oeste 0 -- -- 94
2020-01-17 23:00:00 2.1 2 Noroeste 8 Sudoeste 0 -- -- 91
2020-01-17 22:00:00 4 3 Oeste 7 Este 0 -- -- 88
2020-01-17 21:00:00 5.3 3 Este 9 Este 0 -- -- 83
2020-01-17 20:00:00 6.7 5 Este 10 Este 0 -- -- 77
2020-01-17 19:00:00 7.5 4 Este 11 Este 0 -- -- 76
2020-01-17 18:00:00 8.5 4 Este 15 Este 0 -- -- 72
2020-01-17 17:00:00 9.3 5 Este 15 Sudeste 0 -- -- 70
2020-01-17 16:00:00 9.9 6 Nordeste 14 Este 0 -- -- 71
2020-01-17 15:00:00 11.3 3 Sudeste 6 Este 0 -- -- 64
2020-01-17 14:00:00 10.1 4 Norte 19 Oeste 0 -- -- 69
2020-01-17 13:00:00 12.1 8 Oeste 19 Oeste 0 -- -- 58
2020-01-17 12:00:00 10.8 7 Noroeste 29 Oeste 0 -- -- 65
2020-01-17 11:00:00 10.3 11 Oeste 26 Oeste 0 -- -- 71
2020-01-17 10:00:00 10 12 Oeste 23 Oeste 0 -- -- 75
2020-01-17 09:00:00 8.5 10 Noroeste 26 Oeste 0 -- -- 85
2020-01-17 08:00:00 8.4 7 Oeste 16 Sudoeste 0 -- -- 86
2020-01-17 07:00:00 8.8 10 Oeste 36 Oeste 1.4 -- -- 85
2020-01-17 06:00:00 8.6 5 Oeste 14 Sudoeste 0 -- -- 79
2020-01-17 05:00:00 8.4 4 Norte 12 Noroeste 0 -- -- 79
2020-01-17 04:00:00 8.7 5 Oeste 19 Oeste 0 -- -- 76
2020-01-17 03:00:00 9.6 10 Noroeste 40 Sudoeste 0 -- -- 71
2020-01-17 02:00:00 11 11 Sudoeste 40 Sudoeste 0 -- -- 63
2020-01-17 01:00:00 11.4 18 Sudoeste 44 Sudoeste 0 -- -- 60
2020-01-17 00:00:00 10.8 7 Sudoeste 37 Sudoeste 0 -- -- 65
2020-01-16 23:00:00 11.2 18 Sudoeste 38 Sudoeste 0 -- -- 62
2020-01-16 22:00:00 7.4 2 Este 7 Noroeste 0 -- -- 88
2020-01-16 21:00:00 6.4 2 Norte 7 Norte 0 -- -- 90
2020-01-16 20:00:00 6.4 2 Norte 5 Sudeste 0 -- -- 89
2020-01-16 19:00:00 7.9 3 Noroeste 11 Sudeste 0 -- -- 84
2020-01-16 18:00:00 10.6 6 Sur 14 Sur 0 -- -- 73
2020-01-16 17:00:00 14 7 Sur 22 Sur 0 -- -- 62
2020-01-16 16:00:00 12.8 8 Sur 23 Sur 0 -- -- 66
2020-01-16 15:00:00 13.8 10 Sur 22 Sudeste 0 -- -- 63
2020-01-16 14:00:00 11.8 6 Sudeste 19 Sudeste 0 -- -- 67
2020-01-16 13:00:00 12.5 3 Este 13 Oeste 0 -- -- 66
2020-01-16 12:00:00 8.8 2 Sudoeste 13 Nordeste 0 -- -- 75
2020-01-16 11:00:00 6.4 4 Norte 9 Nordeste 0 -- -- 87
2020-01-16 10:00:00 3.8 2 Nordeste 10 Sudeste 0 -- -- 93
2020-01-16 09:00:00 2.6 4 Nordeste 11 Nordeste 0 -- -- 95
2020-01-16 08:00:00 2.1 2 Noroeste 7 Norte 0 -- -- 96
2020-01-16 07:00:00 2 2 Oeste 8 Norte 0 -- -- 95
2020-01-16 06:00:00 2.4 3 Norte 6 Norte 0 -- -- 93
2020-01-16 05:00:00 4 3 Sudoeste 5 Sudoeste 0 -- -- 92
2020-01-16 04:00:00 5.1 2 Sudeste 8 Sudoeste 0 -- -- 88
2020-01-16 03:00:00 5.6 4 Sudoeste 10 Oeste 0 -- -- 85
2020-01-16 02:00:00 6.4 3 Sur 18 Sudoeste 0 -- -- 83
2020-01-16 01:00:00 6.4 5 Sur 19 Sur 0 -- -- 84
2020-01-16 00:00:00 2.8 3 Sur 8 Sur 0 -- -- 93
2020-01-15 23:00:00 3.9 3 Sudoeste 7 Oeste 0 -- -- 91
2020-01-15 22:00:00 5.6 3 Sur 14 Sudoeste 0 -- -- 85
2020-01-15 21:00:00 7 6 Sur 13 Sudoeste 0 -- -- 82
2020-01-15 20:00:00 7.3 3 Sudoeste 12 Sudoeste 0 -- -- 82
2020-01-15 19:00:00 8.5 7 Sur 24 Sur 0 -- -- 77
2020-01-15 18:00:00 9.6 8 Sudoeste 21 Sudoeste 0 -- -- 72
2020-01-15 17:00:00 11.5 4 Sur 10 Este 0 -- -- 66
2020-01-15 16:00:00 9.4 8 Sudeste 17 Sudoeste 0 -- -- 74
2020-01-15 15:00:00 8.8 4 Sudoeste 14 Sur 0 -- -- 72
2020-01-15 14:00:00 10.9 10 Sur 20 Sur 0 -- -- 65
2020-01-15 13:00:00 5.9 3 Sur 12 Nordeste 0 -- -- 79
2020-01-15 12:00:00 4.5 0 Calma 14 Sudeste 0 -- -- 83
2020-01-15 11:00:00 4.8 4 Este 18 Sudoeste 0 -- -- 79
2020-01-15 10:00:00 4 8 Sudoeste 24 Sudoeste 0 -- -- 82
2020-01-15 09:00:00 3.8 5 Nordeste 13 Sudoeste 0 -- -- 82
2020-01-15 08:00:00 4.1 8 Sudoeste 16 Sudoeste 0 -- -- 80
2020-01-15 07:00:00 4.4 7 Sudoeste 18 Sudeste 0 -- -- 78
2020-01-15 06:00:00 5 9 Sudeste 19 Sudeste 0 -- -- 78
2020-01-15 05:00:00 3.8 2 Sudoeste 10 Sudeste 0 -- -- 84
2020-01-15 04:00:00 3.4 6 Sudeste 14 Sudeste 0 -- -- 84
2020-01-15 03:00:00 2.9 3 Sudeste 13 Sur 0 -- -- 86
2020-01-15 02:00:00 2.7 3 Oeste 15 Sur 0 -- -- 85
2020-01-15 01:00:00 2.7 3 Sudoeste 25 Sudoeste 0 -- -- 85
2020-01-15 00:00:00 2.2 12 Sudoeste 27 Sur 0 -- -- 84
2020-01-14 23:00:00 4.9 11 Sudoeste 20 Sudoeste 0 -- -- 75
2020-01-14 22:00:00 4 7 Sudoeste 21 Sur 0 -- -- 78
2020-01-14 21:00:00 4 13 Sur 32 Sudoeste 0 -- -- 76
2020-01-14 20:00:00 5.5 12 Sur 33 Sudoeste 0 -- -- 71
2020-01-14 19:00:00 7 15 Sudoeste 34 Sur 0 -- -- 65
2020-01-14 18:00:00 11.2 17 Sudoeste 47 Sudoeste 0 -- -- 55
2020-01-14 17:00:00 11.8 19 Sudoeste 42 Sudoeste 0 -- -- 54
2020-01-14 16:00:00 11.9 23 Sudoeste 53 Sudoeste 0 -- -- 54
2020-01-14 15:00:00 11.2 19 Sudoeste 47 Sudoeste 0 -- -- 57
2020-01-14 14:00:00 11.4 28 Sudoeste 49 Sudoeste 0 -- -- 55
2020-01-14 13:00:00 11.7 12 Sudoeste 32 Sur 0 -- -- 57
2020-01-14 12:00:00 9.5 12 Oeste 29 Sudoeste 0 -- -- 66
2020-01-14 11:00:00 8.3 8 Sudoeste 28 Sudoeste 0 -- -- 71
2020-01-14 10:00:00 7.2 13 Oeste 37 Sudoeste 0 -- -- 73
2020-01-14 09:00:00 6.9 19 Oeste 36 Oeste 0 -- -- 76
2020-01-14 08:00:00 7 21 Oeste 35 Oeste 0 -- -- 75
2020-01-14 07:00:00 7 17 Oeste 33 Sudoeste 0 -- -- 75
2020-01-14 06:00:00 6.9 12 Oeste 28 Oeste 0 -- -- 74
2020-01-14 05:00:00 7 13 Oeste 24 Oeste 0 -- -- 72
2020-01-14 04:00:00 6.8 5 Oeste 42 Sudoeste 0 -- -- 72
2020-01-14 03:00:00 6.8 14 Oeste 36 Oeste 0 -- -- 70
2020-01-14 02:00:00 5.9 9 Sudoeste 24 Sudoeste 0 -- -- 69
2020-01-14 01:00:00 2.7 0 Calma 19 Sudoeste 0 -- -- 82
2020-01-14 00:00:00 4.4 3 Oeste 15 Oeste 0 -- -- 76
2020-01-13 23:00:00 5 5 Oeste 25 Sudoeste 0 -- -- 75
2020-01-13 22:00:00 5.2 12 Oeste 22 Sudoeste 0 -- -- 72
2020-01-13 21:00:00 4.6 5 Oeste 35 Oeste 0 -- -- 74
2020-01-13 20:00:00 5.5 12 Sudoeste 26 Sudoeste 0 -- -- 71
2020-01-13 19:00:00 5.8 7 Noroeste 19 Oeste 0 -- -- 71
2020-01-13 18:00:00 8.6 9 Oeste 38 Oeste 0 -- -- 59
2020-01-13 17:00:00 10.5 22 Oeste 36 Oeste 0 -- -- 51
2020-01-13 16:00:00 10.6 8 Sur 22 Sudoeste 0 -- -- 54
2020-01-13 15:00:00 11.5 6 Sur 21 Sudoeste 0 -- -- 54
2020-01-13 14:00:00 8.4 11 Oeste 20 Oeste 0 -- -- 62
2020-01-13 13:00:00 4 2 Oeste 8 Sudoeste 0 -- -- 93
2020-01-13 12:00:00 1 3 Noroeste 7 Noroeste 0 -- -- 96
2020-01-13 11:00:00 -0.1 3 Sur 7 Sur 0 -- -- 97
2020-01-13 10:00:00 -1.6 3 Noroeste 7 Sudoeste 0 -- -- 98
2020-01-13 09:00:00 -1.8 4 Sudoeste 9 Oeste 0 -- -- 98
2020-01-13 08:00:00 -2.1 4 Oeste 6 Noroeste 0 -- -- 98
2020-01-13 07:00:00 -1.9 3 Sudoeste 8 Sudoeste 0 -- -- 98
2020-01-13 06:00:00 -1.7 3 Oeste 5 Noroeste 0 -- -- 98
2020-01-13 05:00:00 -1.4 2 Noroeste 4 Noroeste 0 -- -- 98
2020-01-13 04:00:00 -1.4 0 Calma 2 Sudeste 0 -- -- 98
2020-01-13 03:00:00 -1.8 0 Calma 2 Sudoeste 0 -- -- 97
2020-01-13 02:00:00 -2.5 0 Calma 3 Noroeste 0 -- -- 98
2020-01-13 01:00:00 -2 0 Calma 3 Noroeste 0 -- -- 98
2020-01-13 00:00:00 -1.7 2 Sudoeste 3 Sur 0 -- -- 97
2020-01-12 23:00:00 -1.5 0 Calma 3 Noroeste 0 -- -- 97
2020-01-12 22:00:00 -1 0 Calma 2 Noroeste 0 -- -- 96
2020-01-12 21:00:00 -0.5 0 Calma 4 Noroeste 0 -- -- 96
2020-01-12 20:00:00 0.7 0 Calma 3 Sudoeste 0 -- -- 94
2020-01-12 19:00:00 1.9 0 Calma 4 Noroeste 0 -- -- 91
2020-01-12 18:00:00 4.7 0 Calma 3 Noroeste 0 -- -- 83
2020-01-12 17:00:00 9.3 2 Noroeste 4 Norte 0 -- -- 67
2020-01-12 16:00:00 7.4 0 Calma 5 Noroeste 0 -- -- 73
2020-01-12 15:00:00 7 2 Nordeste 6 Este 0 -- -- 89
2020-01-12 14:00:00 4.3 3 Norte 6 Norte 0 -- -- 90
2020-01-12 13:00:00 0 2 Oeste 5 Oeste 0 -- -- 96
2020-01-12 12:00:00 -0.8 2 Norte 5 Nordeste 0 -- -- 96
2020-01-12 11:00:00 -2.3 2 Sur 6 Oeste 0 -- -- 97
2020-01-12 10:00:00 -2.9 3 Oeste 6 Noroeste 0 -- -- 97
2020-01-12 09:00:00 -3.4 0 Calma 8 Sudoeste 0 -- -- 97
2020-01-12 08:00:00 -3.2 4 Sudoeste 7 Oeste 0 -- -- 97
2020-01-12 07:00:00 -2.5 3 Sudoeste 6 Sudoeste 0 -- -- 97
2020-01-12 06:00:00 -2.4 0 Calma 7 Sudoeste 0 -- -- 98
2020-01-12 05:00:00 -2.5 4 Oeste 7 Sudoeste 0 -- -- 97
2020-01-12 04:00:00 -1.9 2 Sur 6 Sudeste 0 -- -- 97
2020-01-12 03:00:00 -2 2 Sudeste 3 Sudeste 0 -- -- 97
2020-01-12 02:00:00 -2.1 0 Calma 2 Norte 0 -- -- 97
2020-01-12 01:00:00 -2.3 0 Calma 3 Norte 0 -- -- 97
2020-01-12 00:00:00 -1.7 0 Calma 4 Noroeste 0 -- -- 97
2020-01-11 23:00:00 -1.3 0 Calma 4 Oeste 0 -- -- 97
2020-01-11 22:00:00 -0.8 0 Calma 2 Norte 0 -- -- 96
2020-01-11 21:00:00 0.4 0 Calma 4 Noroeste 0 -- -- 95
2020-01-11 20:00:00 1.4 0 Calma 4 Noroeste 0 -- -- 93
2020-01-11 19:00:00 3.5 2 Oeste 6 Oeste 0 -- -- 89
2020-01-11 18:00:00 7 3 Oeste 5 Sudoeste 0 -- -- 78
2020-01-11 17:00:00 12.4 2 Norte 5 Noroeste 0 -- -- 59
2020-01-11 16:00:00 11.3 3 Oeste 9 Noroeste 0 -- -- 62
2020-01-11 15:00:00 12.3 2 Norte 6 Nordeste 0 -- -- 57
2020-01-11 14:00:00 10.2 2 Norte 5 Noroeste 0 -- -- 70
2020-01-11 13:00:00 6.1 3 Norte 8 Oeste 0 -- -- 86
2020-01-11 12:00:00 4.1 4 Oeste 7 Noroeste 0 -- -- 95
2020-01-11 11:00:00 1.8 0 Calma 8 Sudeste 0 -- -- 97
2020-01-11 10:00:00 0.6 2 Noroeste 8 Sudoeste 0 -- -- 98
2020-01-11 09:00:00 -0.1 4 Sur 8 Este 0 -- -- 98
2020-01-11 08:00:00 -0.1 3 Este 11 Este 0 -- -- 98
2020-01-11 07:00:00 0.1 5 Sudeste 9 Sudeste 0 -- -- 98
2020-01-11 06:00:00 0.3 0 Calma 5 Sur 0 -- -- 97
2020-01-11 05:00:00 0.2 2 Norte 9 Este 0 -- -- 97
2020-01-11 04:00:00 -0.6 0 Calma 7 Oeste 0 -- -- 96
2020-01-11 03:00:00 -0.5 2 Oeste 5 Noroeste 0 -- -- 96
2020-01-11 02:00:00 0.8 3 Sudoeste 12 Sudoeste 0 -- -- 95
2020-01-11 01:00:00 1.7 5 Sudoeste 12 Sudoeste 0 -- -- 96
2020-01-11 00:00:00 1.6 3 Noroeste 9 Oeste 0 -- -- 95
2020-01-10 23:00:00 3.2 2 Nordeste 8 Oeste 0 -- -- 91
2020-01-10 22:00:00 4.8 3 Sudoeste 9 Oeste 0 -- -- 91
2020-01-10 21:00:00 4.4 2 Noroeste 6 Sur 0 -- -- 90
2020-01-10 20:00:00 6.2 0 Calma 12 Norte 0 -- -- 86
2020-01-10 19:00:00 5.9 5 Norte 10 Oeste 0 -- -- 88
2020-01-10 18:00:00 7.1 5 Oeste 19 Nordeste 0 -- -- 80
2020-01-10 17:00:00 7.9 5 Oeste 13 Sudoeste 0 -- -- 79
2020-01-10 16:00:00 7.6 5 Norte 23 Este 0.4 -- -- 84
2020-01-10 15:00:00 8.7 12 Noroeste 22 Noroeste 0 -- -- 76
2020-01-10 14:00:00 8.3 3 Oeste 12 Sudeste 0 -- -- 81
2020-01-10 13:00:00 7.7 3 Norte 9 Sudoeste 0 -- -- 78
2020-01-10 12:00:00 10 2 Sur 6 Este 0 -- -- 88
2020-01-10 11:00:00 4.5 3 Sudeste 6 Sudeste 0 -- -- 98
2020-01-10 10:00:00 2.3 0 Calma 6 Sudoeste 0 -- -- 99
2020-01-10 09:00:00 1.1 0 Calma 8 Sudoeste 0 -- -- 99
2020-01-10 08:00:00 2.2 3 Sudeste 12 Sudeste 0 -- -- 99
2020-01-10 07:00:00 2.5 0 Calma 10 Noroeste 0 -- -- 99
2020-01-10 06:00:00 3.3 4 Sur 8 Noroeste 0 -- -- 99
2020-01-10 05:00:00 3.1 0 Calma 6 Noroeste 0 -- -- 99
2020-01-10 04:00:00 2.6 2 Este 6 Sudeste 0 -- -- 99
2020-01-10 03:00:00 3.2 3 Norte 9 Sudoeste 0 -- -- 97
2020-01-10 02:00:00 3.9 2 Noroeste 9 Sudeste 0 -- -- 98
2020-01-10 01:00:00 5.1 3 Este 8 Oeste 0 -- -- 97
2020-01-10 00:00:00 5.3 4 Sudoeste 10 Oeste 1 -- -- 97
2020-01-09 23:00:00 5 2 Norte 9 Sudeste 0 -- -- 97
2020-01-09 22:00:00 4.8 4 Sudeste 8 Sudeste 0 -- -- 97
2020-01-09 21:00:00 4.8 4 Sur 17 Sudeste 1.2 -- -- 96
2020-01-09 20:00:00 4.9 12 Sudeste 18 Sudeste 0 -- -- 96
2020-01-09 19:00:00 5.1 8 Sudeste 23 Sudeste 0 -- -- 95
2020-01-09 18:00:00 6.6 9 Sudeste 17 Sudeste 0 -- -- 86
2020-01-09 17:00:00 6.6 9 Sur 20 Sudeste 0 -- -- 85
2020-01-09 16:00:00 8.5 7 Sur 24 Sur 0 -- -- 79
2020-01-09 15:00:00 7.1 15 Sudeste 29 Sur 0 -- -- 81
2020-01-09 14:00:00 8.8 15 Sur 28 Sur 0.4 -- -- 75
2020-01-09 13:00:00 7.1 15 Sur 28 Sudeste 0 -- -- 80
2020-01-09 12:00:00 8.2 14 Sur 23 Sur 0 -- -- 76
2020-01-09 11:00:00 4.8 5 Sur 14 Sur 0 -- -- 90
2020-01-09 10:00:00 3.9 3 Sur 13 Sudoeste 0 -- -- 96
2020-01-09 09:00:00 2.9 0 Calma 6 Sur 0 -- -- 96
2020-01-09 08:00:00 2.7 3 Noroeste 5 Noroeste 0 -- -- 96
2020-01-09 07:00:00 2.3 2 Norte 5 Sudeste 0 -- -- 97
2020-01-09 06:00:00 2.1 2 Sur 13 Sur 0 -- -- 96
2020-01-09 05:00:00 2.7 0 Calma 4 Sudeste 0 -- -- 97
2020-01-09 04:00:00 2.7 0 Calma 7 Sudeste 0 -- -- 97
2020-01-09 03:00:00 2.8 4 Sudeste 13 Sur 0 -- -- 97
2020-01-09 02:00:00 2.8 2 Noroeste 5 Sur 0 -- -- 97
2020-01-09 01:00:00 1.8 0 Calma 4 Noroeste 0 -- -- 97
2020-01-09 00:00:00 1.6 2 Nordeste 5 Noroeste 0 -- -- 96
2020-01-08 23:00:00 2.8 2 Sudeste 11 Sudeste 0 -- -- 95
2020-01-08 22:00:00 3.5 5 Sudeste 13 Sudeste 0 -- -- 95
2020-01-08 21:00:00 4.7 3 Este 6 Este 0 -- -- 94
2020-01-08 20:00:00 5.7 0 Calma 5 Sudoeste 0 -- -- 90
2020-01-08 19:00:00 7.2 3 Este 17 Sudeste 0 -- -- 86
2020-01-08 18:00:00 9.8 8 Sudeste 14 Sudeste 0 -- -- 81
2020-01-08 17:00:00 17.5 0 Calma 4 Sudoeste 0 -- -- 56
2020-01-08 16:00:00 15.4 0 Calma 8 Sudeste 0 -- -- 62
2020-01-08 15:00:00 14.9 2 Sudoeste 8 Sur 0 -- -- 61
2020-01-08 14:00:00 13.6 4 Noroeste 6 Norte 0 -- -- 64
2020-01-08 13:00:00 11.4 3 Norte 5 Norte 0 -- -- 68
2020-01-08 12:00:00 8.1 3 Noroeste 6 Noroeste 0 -- -- 84
2020-01-08 11:00:00 2.7 0 Calma 8 Sudeste 0 -- -- 96
2020-01-08 10:00:00 1.5 5 Sudeste 9 Sudeste 0 -- -- 98
2020-01-08 09:00:00 -0.6 2 Oeste 6 Sudoeste 0 -- -- 98
2020-01-08 08:00:00 -0.4 4 Sudeste 7 Sudeste 0 -- -- 98
2020-01-08 07:00:00 -1.1 0 Calma 3 Norte 0 -- -- 98
2020-01-08 06:00:00 -0.9 0 Calma 3 Sur 0 -- -- 98
2020-01-08 05:00:00 -0.5 0 Calma 4 Oeste 0 -- -- 98
2020-01-08 04:00:00 -0.4 3 Noroeste 3 Norte 0 -- -- 97
2020-01-08 03:00:00 -0.2 0 Calma 3 Noroeste 0 -- -- 97
2020-01-08 02:00:00 0.1 0 Calma 4 Oeste 0 -- -- 97
2020-01-08 01:00:00 0.3 2 Oeste 4 Noroeste 0 -- -- 97
2020-01-08 00:00:00 0.4 0 Calma 4 Noroeste 0 -- -- 96
2020-01-07 23:00:00 1.2 0 Calma 5 Oeste 0 -- -- 96
2020-01-07 22:00:00 1.1 0 Calma 4 Norte 0 -- -- 96
2020-01-07 21:00:00 1.6 2 Oeste 4 Noroeste 0 -- -- 95
2020-01-07 20:00:00 2.6 2 Sudoeste 4 Noroeste 0 -- -- 93
2020-01-07 19:00:00 3.7 2 Noroeste 4 Oeste 0 -- -- 90
2020-01-07 18:00:00 6.8 0 Calma 3 Oeste 0 -- -- 81
2020-01-07 17:00:00 11.9 3 Noroeste 4 Noroeste 0 -- -- 66
2020-01-07 16:00:00 10.7 2 Norte 6 Noroeste 0 -- -- 66
2020-01-07 15:00:00 10.1 3 Oeste 6 Nordeste 0 -- -- 64
2020-01-07 14:00:00 8.3 3 Sudeste 9 Sudeste 0 -- -- 80
2020-01-07 13:00:00 4.1 4 Nordeste 7 Nordeste 0 -- -- 92
2020-01-07 12:00:00 0 2 Norte 6 Oeste 0 -- -- 97
2020-01-07 11:00:00 -0.6 2 Norte 5 Nordeste 0 -- -- 97
2020-01-07 10:00:00 -1.5 2 Noroeste 6 Oeste 0 -- -- 98
2020-01-07 09:00:00 -1.6 4 Oeste 6 Sudoeste 0 -- -- 98
2020-01-07 08:00:00 -1.6 2 Sudoeste 9 Oeste 0 -- -- 98
2020-01-07 07:00:00 -1.4 3 Sudoeste 5 Sudoeste 0 -- -- 98
2020-01-07 06:00:00 -1.2 4 Sudeste 8 Sudeste 0 -- -- 98
2020-01-07 05:00:00 -1 3 Noroeste 8 Oeste 0 -- -- 97
2020-01-07 04:00:00 -0.9 3 Oeste 6 Oeste 0 -- -- 97
2020-01-07 03:00:00 -2.5 3 Noroeste 4 Nordeste 0 -- -- 97
2020-01-07 02:00:00 -2.1 0 Calma 6 Oeste 0 -- -- 96
2020-01-07 01:00:00 -1.9 0 Calma 3 Oeste 0 -- -- 96
2020-01-07 00:00:00 -1.1 4 Oeste 6 Oeste 0 -- -- 97
2020-01-06 23:00:00 -0.7 3 Norte 6 Noroeste 0 -- -- 94
2020-01-06 22:00:00 0 2 Noroeste 8 Sudoeste 0 -- -- 94
2020-01-06 21:00:00 0.3 0 Calma 6 Noroeste 0 -- -- 93
2020-01-06 20:00:00 1.7 2 Norte 5 Sudoeste 0 -- -- 90
2020-01-06 19:00:00 3.2 2 Norte 7 Oeste 0 -- -- 87
2020-01-06 18:00:00 6.1 0 Calma 5 Sur 0 -- -- 80
2020-01-06 17:00:00 9.7 2 Sudeste 6 Sudeste 0 -- -- 64
2020-01-06 16:00:00 11.3 0 Calma 10 Este 0 -- -- 58
2020-01-06 15:00:00 12 2 Este 7 Noroeste 0 -- -- 57
2020-01-06 14:00:00 11 2 Noroeste 9 Noroeste 0 -- -- 58
2020-01-06 13:00:00 8.1 3 Nordeste 9 Nordeste 0 -- -- 68
2020-01-06 12:00:00 5.4 4 Noroeste 9 Oeste 0 -- -- 74
2020-01-06 11:00:00 1 5 Oeste 8 Oeste 0 -- -- 87
2020-01-06 10:00:00 0.6 3 Sudoeste 5 Oeste 0 -- -- 86